Dundee, Oregon
Current Conditions -  °F | °C
As of 3:53 AM on Friday 19 Dec 2014 (Local Time) from KMMV Reporting Station
Light Rain Light Rain  
Wind Chill:   Ceiling: 5500
Heat Index:   Visibility: 10mi
Dew Point:   Wind: 7mph
Humidity: 86%   Direction: 150°SSE
Pressure: 29.91"   Gusts: NA
Location:  45.28°N, 123.01°W
Report Text: KMMV 191153Z AUTO 15006KT 10SM -RA FEW040 BKN055 OVC100 08/06 A2991 RMK AO2 RAB51 SLP129 P0000 60011 70031 T00830061 10100 20078 53012
Loading
Personal Weather Stations






























Interactive Weather Map New forecast layout! Learn more

10-Day Weather Forecast

Advertisements
Track Severe Weather on mobile